createdAt,value
2022-08-07T00:01:43.127Z,28.36
2022-08-07T00:03:52.158Z,28.35
2022-08-07T00:06:32.916Z,28.35
2022-08-07T00:09:16.300Z,28.35
2022-08-07T00:11:47.928Z,28.36
2022-08-07T00:14:22.087Z,28.35
2022-08-07T00:16:52.348Z,28.36
2022-08-07T00:19:21.397Z,28.35
2022-08-07T00:21:56.288Z,28.36
2022-08-07T00:24:24.172Z,28.33
2022-08-07T00:27:06.337Z,28.35
2022-08-07T00:29:34.419Z,28.34
2022-08-07T00:32:05.915Z,28.34
2022-08-07T00:34:35.617Z,28.34
2022-08-07T00:37:02.867Z,28.35
2022-08-07T00:39:32.235Z,28.33
2022-08-07T00:42:01.727Z,28.34
2022-08-07T00:44:33.054Z,28.35
2022-08-07T00:47:00.933Z,28.34
2022-08-07T00:50:20.774Z,28.33
2022-08-07T00:52:14.940Z,28.33
2022-08-07T00:54:46.898Z,28.33
2022-08-07T00:57:22.237Z,28.34
2022-08-07T00:59:49.180Z,28.34
2022-08-07T01:02:28.715Z,28.33
2022-08-07T01:04:58.179Z,28.33
2022-08-07T01:07:27.620Z,28.33
2022-08-07T01:10:06.144Z,28.33
2022-08-07T01:12:38.928Z,28.31
2022-08-07T01:15:06.618Z,28.32
2022-08-07T01:17:38.420Z,28.32
2022-08-07T01:20:16.749Z,28.32
2022-08-07T01:22:46.699Z,28.34
2022-08-07T01:25:53.806Z,28.32
2022-08-07T01:28:00.454Z,28.32
2022-08-07T01:30:27.430Z,28.31
2022-08-07T01:32:56.020Z,28.32
2022-08-07T01:35:25.247Z,28.32
2022-08-07T01:38:12.184Z,28.31
2022-08-07T01:40:38.954Z,28.31
2022-08-07T01:43:05.775Z,28.32
2022-08-07T01:45:37.058Z,28.32
2022-08-07T01:48:19.024Z,28.30
2022-08-07T01:50:55.691Z,28.29
2022-08-07T01:54:09.642Z,28.31
2022-08-07T01:56:13.297Z,28.29
2022-08-07T01:58:45.218Z,28.31
2022-08-07T02:01:25.612Z,28.30
2022-08-07T02:04:10.133Z,28.31
2022-08-07T02:06:40.624Z,28.30
2022-08-07T02:09:09.431Z,28.30
2022-08-07T02:12:04.139Z,28.31
2022-08-07T02:14:35.925Z,28.30
2022-08-07T02:17:07.394Z,28.30
2022-08-07T02:20:04.606Z,28.28
2022-08-07T02:22:21.119Z,28.29
2022-08-07T02:24:52.965Z,28.29
2022-08-07T02:27:21.059Z,28.29
2022-08-07T02:29:54.772Z,28.29
2022-08-07T02:32:23.516Z,28.28
2022-08-07T02:34:53.691Z,28.28
2022-08-07T02:37:20.630Z,28.29
2022-08-07T02:40:02.026Z,28.28
2022-08-07T02:42:34.621Z,28.30
2022-08-07T02:45:13.572Z,28.29
2022-08-07T02:47:52.819Z,28.29
2022-08-07T02:50:19.796Z,28.29
2022-08-07T02:53:15.296Z,28.30
2022-08-07T02:56:03.451Z,28.27
2022-08-07T02:58:33.641Z,28.27
2022-08-07T03:01:00.565Z,28.29
2022-08-07T03:03:42.133Z,28.30
2022-08-07T03:06:16.431Z,28.30
2022-08-07T03:08:43.433Z,28.27
2022-08-07T03:11:10.705Z,28.28
2022-08-07T03:13:39.232Z,28.27
2022-08-07T03:16:16.459Z,28.28
2022-08-07T03:18:44.813Z,28.29
2022-08-07T03:21:14.362Z,28.29
2022-08-07T03:24:20.820Z,28.29
2022-08-07T03:26:33.156Z,28.29
2022-08-07T03:29:04.240Z,28.29
2022-08-07T03:31:42.322Z,28.29
2022-08-07T03:34:10.299Z,28.29
2022-08-07T03:36:45.599Z,28.29
2022-08-07T03:39:13.046Z,28.29
2022-08-07T03:41:42.126Z,28.29
2022-08-07T03:44:13.961Z,28.30
2022-08-07T03:47:13.483Z,28.30
2022-08-07T03:49:29.465Z,28.31
2022-08-07T03:52:01.826Z,28.31
2022-08-07T03:54:36.460Z,28.32
2022-08-07T03:58:34.142Z,28.31
2022-08-07T04:00:04.174Z,28.31
2022-08-07T04:02:30.976Z,28.32
2022-08-07T04:04:58.388Z,28.34
2022-08-07T04:07:25.627Z,28.38
2022-08-07T04:10:03.307Z,28.44
2022-08-07T04:12:30.220Z,28.47
2022-08-07T04:14:57.405Z,28.53
2022-08-07T04:18:04.640Z,28.56
2022-08-07T04:20:12.930Z,28.57
2022-08-07T04:22:40.562Z,28.59
2022-08-07T04:25:21.408Z,28.60
2022-08-07T04:27:59.361Z,28.62
2022-08-07T04:30:43.380Z,28.69
2022-08-07T04:33:13.803Z,28.69
2022-08-07T04:35:40.629Z,28.62
2022-08-07T04:38:08.809Z,28.57
2022-08-07T04:40:51.455Z,28.54
2022-08-07T04:44:09.771Z,28.54
2022-08-07T04:46:29.308Z,28.51
2022-08-07T04:49:25.689Z,28.52
2022-08-07T04:52:11.925Z,28.51
2022-08-07T04:54:50.325Z,28.51
2022-08-07T04:58:10.641Z,28.51
2022-08-07T05:00:29.994Z,28.51
2022-08-07T05:03:17.192Z,28.53
2022-08-07T05:06:19.688Z,28.59
2022-08-07T05:09:03.664Z,28.72
2022-08-07T05:11:56.778Z,28.73
2022-08-07T05:14:55.367Z,28.78
2022-08-07T05:17:52.777Z,28.82
2022-08-07T05:20:09.933Z,28.89
2022-08-07T05:22:37.593Z,28.91
2022-08-07T05:25:08.750Z,28.94
2022-08-07T05:28:02.642Z,28.95
2022-08-07T05:30:30.103Z,29.00
2022-08-07T05:32:59.710Z,29.03
2022-08-07T05:35:33.486Z,29.03
2022-08-07T05:38:09.691Z,29.09
2022-08-07T05:40:37.352Z,29.10
2022-08-07T05:43:17.210Z,29.13
2022-08-07T05:45:46.811Z,29.16
2022-08-07T05:48:14.851Z,29.18
2022-08-07T05:50:42.952Z,29.19
2022-08-07T05:54:14.069Z,29.20
2022-08-07T05:56:03.834Z,29.22
2022-08-07T05:58:36.902Z,29.25
2022-08-07T06:01:06.001Z,29.26
2022-08-07T06:03:56.572Z,29.27
2022-08-07T06:06:23.775Z,29.29
2022-08-07T06:08:56.761Z,29.30
2022-08-07T06:11:25.016Z,29.35
2022-08-07T06:14:12.999Z,29.32
2022-08-07T06:16:38.511Z,29.35
2022-08-07T06:19:06.602Z,29.35
2022-08-07T06:22:14.716Z,29.36
2022-08-07T06:24:38.409Z,29.37
2022-08-07T06:27:06.715Z,29.39
2022-08-07T06:29:34.936Z,29.39
2022-08-07T06:32:05.969Z,29.41
2022-08-07T06:34:32.592Z,29.41
2022-08-07T06:36:59.940Z,29.40
2022-08-07T06:40:12.892Z,29.42
2022-08-07T06:42:35.150Z,29.41
2022-08-07T06:45:02.010Z,29.42
2022-08-07T06:47:28.797Z,29.42
2022-08-07T06:50:14.505Z,29.42
2022-08-07T06:52:52.985Z,29.41
2022-08-07T06:55:33.157Z,29.40
2022-08-07T06:58:11.020Z,29.43
2022-08-07T07:00:39.275Z,29.41
2022-08-07T07:03:13.645Z,29.42
2022-08-07T07:06:02.530Z,29.42
2022-08-07T07:08:28.680Z,29.41
2022-08-07T07:10:57.392Z,29.40
2022-08-07T07:13:58.618Z,29.41
2022-08-07T07:16:30.433Z,29.43
2022-08-07T07:18:59.841Z,29.44
2022-08-07T07:22:04.298Z,29.42
2022-08-07T07:24:19.984Z,29.44
2022-08-07T07:26:51.761Z,29.43
2022-08-07T07:29:56.781Z,29.42
2022-08-07T07:32:08.620Z,29.42
2022-08-07T07:34:36.030Z,29.41
2022-08-07T07:37:22.161Z,29.40
2022-08-07T07:39:55.226Z,29.40
2022-08-07T07:42:32.635Z,29.39
2022-08-07T07:45:03.103Z,29.38
2022-08-07T07:47:29.740Z,29.38
2022-08-07T07:50:35.392Z,29.37
2022-08-07T07:52:44.243Z,29.36
2022-08-07T07:55:13.839Z,29.35
2022-08-07T07:57:43.854Z,29.35
2022-08-07T08:00:20.986Z,29.31
2022-08-07T08:03:04.679Z,29.30
2022-08-07T08:05:50.965Z,29.28
2022-08-07T08:08:34.909Z,29.26
2022-08-07T08:11:08.048Z,29.25
2022-08-07T08:13:52.720Z,29.23
2022-08-07T08:18:36.431Z,29.23
2022-08-07T08:19:17.682Z,29.20
2022-08-07T08:22:16.300Z,29.20
2022-08-07T08:25:18.371Z,29.18
2022-08-07T08:27:56.550Z,29.16
2022-08-07T08:30:24.747Z,29.14
2022-08-07T08:32:58.609Z,29.13
2022-08-07T08:35:28.638Z,29.12
2022-08-07T08:38:03.475Z,29.09
2022-08-07T08:40:37.875Z,29.11
2022-08-07T08:43:32.073Z,29.06
2022-08-07T08:46:44.790Z,29.04
2022-08-07T08:49:32.932Z,29.03
2022-08-07T08:52:13.840Z,29.02
2022-08-07T08:55:21.299Z,29.04
2022-08-07T08:58:07.079Z,29.02
2022-08-07T09:00:48.643Z,29.03
2022-08-07T09:03:49.877Z,29.02
2022-08-07T09:06:48.437Z,29.02
2022-08-07T09:10:03.536Z,29.02
2022-08-07T09:12:41.935Z,29.02
2022-08-07T09:16:23.408Z,29.01
2022-08-07T09:18:41.498Z,29.01
2022-08-07T09:22:10.279Z,29.01
2022-08-07T09:24:59.434Z,29.01
2022-08-07T09:27:38.282Z,29.00
2022-08-07T09:30:25.569Z,29.01
2022-08-07T09:33:05.287Z,29.01
2022-08-07T09:36:02.701Z,29.00
2022-08-07T09:38:54.563Z,29.00
2022-08-07T09:42:02.921Z,28.98
2022-08-07T09:45:03.490Z,29.00
2022-08-07T09:48:06.336Z,29.00
2022-08-07T09:50:39.995Z,28.99
2022-08-07T09:53:07.916Z,28.98
2022-08-07T09:56:03.490Z,28.98
2022-08-07T09:58:41.521Z,28.97
2022-08-07T10:01:51.647Z,28.96
2022-08-07T10:04:28.120Z,28.94
2022-08-07T10:07:25.989Z,28.95
2022-08-07T10:10:03.713Z,28.94
2022-08-07T10:12:45.884Z,28.93
2022-08-07T10:15:28.259Z,28.90
2022-08-07T10:18:39.279Z,28.92
2022-08-07T10:21:14.894Z,28.94
2022-08-07T10:24:08.807Z,28.95
2022-08-07T10:26:53.192Z,28.93
2022-08-07T10:29:51.578Z,28.96
2022-08-07T10:32:53.033Z,28.93
2022-08-07T10:35:56.601Z,28.93
2022-08-07T10:38:48.100Z,28.93
2022-08-07T10:41:47.413Z,28.91
2022-08-07T10:44:28.362Z,28.92
2022-08-07T10:47:55.004Z,28.94
2022-08-07T10:50:25.884Z,28.92
2022-08-07T10:53:41.944Z,28.91
2022-08-07T10:56:31.565Z,28.90
2022-08-07T10:59:30.536Z,28.92
2022-08-07T11:02:27.620Z,28.93
2022-08-07T11:05:19.047Z,28.92
2022-08-07T11:07:58.441Z,28.92
2022-08-07T11:10:35.279Z,28.90
2022-08-07T11:14:43.824Z,28.89
2022-08-07T11:16:10.290Z,28.89
2022-08-07T11:18:50.923Z,28.89
2022-08-07T11:21:40.762Z,28.89
2022-08-07T11:24:22.644Z,28.90
2022-08-07T11:28:01.536Z,28.89
2022-08-07T11:30:18.148Z,28.90
2022-08-07T11:33:15.019Z,28.91
2022-08-07T11:36:10.418Z,28.92
2022-08-07T11:38:58.187Z,28.90
2022-08-07T11:42:01.824Z,28.90
2022-08-07T11:44:37.254Z,28.89
2022-08-07T11:47:56.025Z,28.90
2022-08-07T11:50:57.837Z,28.90
2022-08-07T11:53:43.406Z,28.89
2022-08-07T11:56:32.572Z,28.90
2022-08-07T12:00:08.984Z,28.90
2022-08-07T12:02:52.656Z,28.92
2022-08-07T12:06:00.363Z,28.92
2022-08-07T12:08:56.143Z,28.90
2022-08-07T12:11:32.566Z,28.91
2022-08-07T12:14:20.729Z,28.92
2022-08-07T12:16:52.083Z,28.90
2022-08-07T12:19:35.718Z,28.92
2022-08-07T12:22:39.493Z,28.88
2022-08-07T12:26:05.529Z,28.90
2022-08-07T12:28:57.480Z,28.90
2022-08-07T12:32:01.755Z,28.92
2022-08-07T12:34:28.166Z,28.91
2022-08-07T12:36:54.831Z,28.90
2022-08-07T12:39:43.853Z,28.93
2022-08-07T12:42:10.416Z,28.91
2022-08-07T12:44:42.993Z,28.91
2022-08-07T12:47:37.415Z,28.92
2022-08-07T12:50:34.027Z,28.91
2022-08-07T12:54:23.947Z,28.91
2022-08-07T12:56:51.021Z,28.92
2022-08-07T12:59:25.379Z,28.91
2022-08-07T13:02:11.882Z,28.90
2022-08-07T13:05:01.753Z,28.90
2022-08-07T13:08:13.560Z,28.91
2022-08-07T13:10:51.695Z,28.89
2022-08-07T13:13:50.223Z,28.89
2022-08-07T13:16:41.072Z,28.90
2022-08-07T13:19:46.211Z,28.90
2022-08-07T13:22:52.668Z,28.90
2022-08-07T13:25:29.951Z,28.89
2022-08-07T13:28:11.434Z,28.90
2022-08-07T13:30:48.690Z,28.91
2022-08-07T13:34:32.138Z,28.90
2022-08-07T13:36:30.837Z,28.90
2022-08-07T13:39:12.662Z,28.89
2022-08-07T13:41:50.725Z,28.91
2022-08-07T13:44:27.592Z,28.91
2022-08-07T13:47:01.395Z,28.90
2022-08-07T13:50:34.240Z,28.91
2022-08-07T13:52:32.444Z,28.90
2022-08-07T13:55:19.353Z,28.91
2022-08-07T13:58:02.331Z,28.92
2022-08-07T14:00:50.609Z,28.90
2022-08-07T14:03:30.073Z,28.88
2022-08-07T14:06:12.031Z,28.88
2022-08-07T14:08:46.113Z,28.88
2022-08-07T14:11:22.075Z,28.88
2022-08-07T14:13:56.038Z,28.88
2022-08-07T14:16:31.612Z,28.87
2022-08-07T14:18:58.236Z,28.86
2022-08-07T14:22:01.831Z,28.88
2022-08-07T14:24:19.851Z,28.88
2022-08-07T14:26:55.821Z,28.87
2022-08-07T14:32:45.678Z,28.86
2022-08-07T14:35:43.373Z,28.86
2022-08-07T14:38:26.588Z,28.87
2022-08-07T14:41:02.111Z,28.85
2022-08-07T14:43:58.188Z,28.86
2022-08-07T14:46:18.812Z,28.87
2022-08-07T14:48:57.631Z,28.85
2022-08-07T14:52:03.730Z,28.85
2022-08-07T14:54:32.866Z,28.87
2022-08-07T14:57:04.279Z,28.85
2022-08-07T15:00:03.625Z,28.88
2022-08-07T15:05:20.509Z,28.83
2022-08-07T15:07:51.849Z,28.46
2022-08-07T15:10:40.184Z,28.32
2022-08-07T15:13:25.743Z,28.31
2022-08-07T15:16:11.052Z,28.22
2022-08-07T15:18:43.668Z,28.26
2022-08-07T15:21:44.408Z,28.15
2022-08-07T15:25:15.651Z,28.23
2022-08-07T15:26:57.181Z,28.30
2022-08-07T15:30:08.905Z,28.38
2022-08-07T15:32:12.546Z,28.48
2022-08-07T15:34:50.619Z,28.36
2022-08-07T15:38:17.566Z,28.22
2022-08-07T15:40:33.949Z,28.16
2022-08-07T15:43:10.656Z,28.23
2022-08-07T15:46:01.584Z,28.21
2022-08-07T15:48:35.202Z,28.18
2022-08-07T15:51:08.405Z,28.23
2022-08-07T15:53:52.646Z,28.27
2022-08-07T15:56:24.730Z,28.16
2022-08-07T15:58:58.808Z,28.12
2022-08-07T16:01:38.997Z,28.15
2022-08-07T16:04:14.281Z,28.16
2022-08-07T16:06:54.963Z,28.11
2022-08-07T16:09:51.738Z,28.04
2022-08-07T16:12:29.769Z,28.03
2022-08-07T16:15:55.119Z,28.01
2022-08-07T16:18:49.824Z,28.09
2022-08-07T16:22:02.170Z,28.16
2022-08-07T16:25:10.705Z,28.10
2022-08-07T16:27:58.884Z,28.02
2022-08-07T16:30:31.703Z,28.09
2022-08-07T16:34:01.722Z,28.22
2022-08-07T16:35:52.675Z,28.28
2022-08-07T16:39:01.369Z,28.36
2022-08-07T16:41:54.080Z,28.39
2022-08-07T16:44:40.192Z,28.28
2022-08-07T16:47:51.191Z,28.23
2022-08-07T16:51:21.011Z,28.16
2022-08-07T16:54:11.472Z,28.07
2022-08-07T16:56:55.214Z,27.99
2022-08-07T17:00:01.433Z,27.95
2022-08-07T17:03:06.296Z,27.97
2022-08-07T17:06:28.651Z,28.10
2022-08-07T17:09:09.484Z,28.21
2022-08-07T17:12:05.053Z,28.12
2022-08-07T17:14:34.096Z,28.03
2022-08-07T17:17:02.332Z,28.07
2022-08-07T17:20:01.852Z,28.18
2022-08-07T17:22:37.753Z,28.18
2022-08-07T17:25:10.803Z,28.19
2022-08-07T17:27:58.282Z,27.87
2022-08-07T17:30:27.707Z,27.69
2022-08-07T17:34:10.081Z,27.62
2022-08-07T17:36:03.206Z,27.53
2022-08-07T17:38:51.175Z,27.56
2022-08-07T17:42:02.860Z,27.58
2022-08-07T17:44:50.253Z,27.80
2022-08-07T17:47:43.399Z,27.65
2022-08-07T17:50:22.872Z,27.42
2022-08-07T17:52:59.149Z,27.46
2022-08-07T17:56:01.093Z,27.52
2022-08-07T17:58:50.209Z,27.28
2022-08-07T18:01:22.579Z,27.45
2022-08-07T18:04:16.458Z,27.48
2022-08-07T18:06:58.009Z,27.32
2022-08-07T18:10:05.236Z,27.25
2022-08-07T18:12:31.770Z,27.19
2022-08-07T18:15:32.878Z,27.05
2022-08-07T18:18:44.806Z,27.13
2022-08-07T18:21:27.031Z,27.00
2022-08-07T18:24:33.000Z,26.98
2022-08-07T18:27:38.286Z,26.99
2022-08-07T18:30:31.920Z,27.11
2022-08-07T18:33:10.972Z,26.90
2022-08-07T18:36:12.654Z,26.85
2022-08-07T18:38:56.988Z,27.12
2022-08-07T18:41:45.107Z,27.32
2022-08-07T18:44:15.542Z,27.44
2022-08-07T18:47:01.751Z,27.62
2022-08-07T18:50:38.460Z,27.76
2022-08-07T18:53:12.697Z,27.84
2022-08-07T18:55:59.095Z,27.89
2022-08-07T18:58:35.347Z,27.93
2022-08-07T19:01:05.654Z,27.97
2022-08-07T19:03:53.238Z,28.00
2022-08-07T19:06:48.372Z,28.03
2022-08-07T19:09:55.329Z,28.05
2022-08-07T19:12:49.184Z,28.08
2022-08-07T19:16:02.875Z,28.09
2022-08-07T19:18:34.816Z,28.12
2022-08-07T19:21:47.640Z,28.13
2022-08-07T19:24:03.878Z,28.13
2022-08-07T19:27:09.229Z,28.16
2022-08-07T19:30:55.493Z,28.15
2022-08-07T19:32:18.502Z,27.76
2022-08-07T19:35:03.470Z,27.58
2022-08-07T19:37:55.334Z,27.60
2022-08-07T19:40:16.976Z,27.59
2022-08-07T19:42:58.575Z,27.56
2022-08-07T19:46:09.724Z,27.58
2022-08-07T19:48:19.014Z,27.52
2022-08-07T19:50:53.540Z,27.42
2022-08-07T19:54:34.782Z,27.52
2022-08-07T19:56:15.092Z,27.58
2022-08-07T19:58:56.921Z,27.47
2022-08-07T20:01:24.362Z,27.44
2022-08-07T20:04:11.317Z,27.39
2022-08-07T20:06:57.609Z,27.35
2022-08-07T20:10:37.289Z,27.35
2022-08-07T20:12:31.439Z,27.18
2022-08-07T20:15:03.595Z,27.18
2022-08-07T20:17:31.063Z,27.22
2022-08-07T20:19:59.064Z,27.19
2022-08-07T20:22:29.114Z,27.18
2022-08-07T20:25:06.267Z,27.23
2022-08-07T20:27:47.560Z,27.14
2022-08-07T20:30:22.447Z,27.04
2022-08-07T20:32:49.316Z,27.06
2022-08-07T20:35:26.211Z,27.03
2022-08-07T20:37:57.796Z,26.97
2022-08-07T20:40:32.952Z,26.86
2022-08-07T20:43:00.836Z,26.72
2022-08-07T20:46:23.988Z,26.69
2022-08-07T20:48:25.930Z,26.75
2022-08-07T20:50:58.911Z,26.73
2022-08-07T20:54:03.779Z,26.84
2022-08-07T20:56:12.559Z,26.74
2022-08-07T20:58:43.481Z,26.74
2022-08-07T21:01:19.935Z,26.72
2022-08-07T21:04:18.769Z,26.60
2022-08-07T21:06:35.707Z,26.61
2022-08-07T21:09:13.627Z,26.57
2022-08-07T21:11:50.041Z,26.48
2022-08-07T21:14:33.855Z,26.45
2022-08-07T21:18:00.504Z,26.40
2022-08-07T21:19:51.647Z,26.32
2022-08-07T21:22:28.581Z,26.30
2022-08-07T21:25:12.225Z,26.34
2022-08-07T21:27:53.750Z,26.29
2022-08-07T21:30:23.572Z,26.23
2022-08-07T21:32:53.872Z,26.27
2022-08-07T21:36:05.887Z,26.15
2022-08-07T21:38:39.447Z,26.19
2022-08-07T21:41:22.538Z,26.20
2022-08-07T21:44:14.550Z,26.13
2022-08-07T21:47:12.407Z,26.15
2022-08-07T21:50:02.745Z,26.14
2022-08-07T21:52:54.357Z,26.20
2022-08-07T21:55:27.802Z,26.19
2022-08-07T21:58:18.399Z,26.11
2022-08-07T22:01:13.679Z,26.03
2022-08-07T22:03:47.794Z,26.01
2022-08-07T22:06:30.854Z,26.10
2022-08-07T22:09:07.216Z,26.04
2022-08-07T22:11:53.371Z,26.04
2022-08-07T22:14:34.508Z,25.91
2022-08-07T22:17:04.035Z,25.99
2022-08-07T22:20:00.737Z,25.97
2022-08-07T22:22:34.145Z,25.96
2022-08-07T22:25:16.022Z,25.98
2022-08-07T22:28:20.114Z,26.03
2022-08-07T22:30:53.015Z,26.01
2022-08-07T22:33:52.795Z,25.95
2022-08-07T22:36:22.625Z,25.98
2022-08-07T22:38:52.714Z,25.92
2022-08-07T22:41:29.128Z,25.96
2022-08-07T22:44:12.925Z,25.80
2022-08-07T22:47:23.151Z,25.83
2022-08-07T22:50:20.824Z,25.80
2022-08-07T22:53:16.643Z,25.75
2022-08-07T22:56:01.805Z,25.80
2022-08-07T22:59:04.936Z,25.78
2022-08-07T23:01:49.921Z,25.79
2022-08-07T23:04:29.919Z,25.73
2022-08-07T23:07:40.448Z,25.78
2022-08-07T23:10:04.562Z,25.67
2022-08-07T23:13:14.703Z,25.63
2022-08-07T23:16:48.281Z,25.56
2022-08-07T23:19:51.950Z,25.65
2022-08-07T23:22:30.138Z,25.69
2022-08-07T23:25:08.124Z,25.66
2022-08-07T23:28:20.628Z,25.53
2022-08-07T23:31:13.831Z,25.56
2022-08-07T23:34:36.480Z,25.47
2022-08-07T23:37:19.313Z,25.53
2022-08-07T23:39:57.934Z,25.56
2022-08-07T23:42:46.176Z,25.46
2022-08-07T23:46:01.825Z,25.30
2022-08-07T23:48:12.121Z,25.31
2022-08-07T23:50:47.387Z,25.37
2022-08-07T23:53:56.230Z,25.36
2022-08-07T23:56:40.391Z,25.37
